Time;durP1;ratioP1;P1;durP2;ratioP2;P2;SDS_P1;SDS_P2;PMS_P1;PMS_P2;Temp;Humidity;BMP_temperature;BMP_pressure;BME280_temperature;BME280_humidity;BME280_pressure;Samples;Min_cycle;Max_cycle;Signal;HPM_P1;HPM_P2
2023/08/10 00:01:30;;;;;;;1.80;1.58;;;;;;;15.40;100.00;98962.66;4202224;28;20234;-47
2023/08/10 00:03:32;;;;;;;1.33;1.15;;;;;;;15.38;100.00;98959.38;4198631;28;20226;-47
2023/08/10 00:05:34;;;;;;;3.00;1.23;;;;;;;15.39;100.00;98966.53;4204134;28;20198;-47
2023/08/10 00:07:36;;;;;;;3.45;1.00;;;;;;;15.46;100.00;98967.09;4201289;28;20199;-47
2023/08/10 00:09:37;;;;;;;1.40;1.30;;;;;;;15.47;100.00;98968.75;4205047;28;20260;-48
2023/08/10 00:11:40;;;;;;;9.15;1.23;;;;;;;15.42;100.00;98954.94;4215727;28;20213;-47
2023/08/10 00:13:42;;;;;;;1.65;1.40;;;;;;;15.42;100.00;98960.47;4201815;28;20222;-47
2023/08/10 00:15:44;;;;;;;3.20;1.38;;;;;;;15.40;100.00;98959.06;4203750;28;20206;-48
2023/08/10 00:17:46;;;;;;;1.48;1.23;;;;;;;15.45;100.00;98964.59;4221482;28;20271;-47
2023/08/10 00:19:48;;;;;;;1.33;1.23;;;;;;;15.41;100.00;98958.81;4203279;28;20207;-47
2023/08/10 00:21:50;;;;;;;1.35;1.20;;;;;;;15.41;100.00;98958.81;4206689;28;20211;-48
2023/08/10 00:23:52;;;;;;;2.30;1.40;;;;;;;15.37;100.00;98957.66;4203597;28;20965;-47
2023/08/10 00:25:53;;;;;;;10.23;1.27;;;;;;;15.31;100.00;98958.72;4206403;28;20592;-48
2023/08/10 00:27:55;;;;;;;5.53;1.10;;;;;;;15.27;100.00;98960.38;4203913;28;20206;-47
2023/08/10 00:29:57;;;;;;;3.30;1.42;;;;;;;15.17;100.00;98959.50;4199495;28;20736;-48
2023/08/10 00:31:59;;;;;;;3.33;1.33;;;;;;;15.08;100.00;98961.94;4202829;28;20276;-47
2023/08/10 00:34:01;;;;;;;2.28;1.55;;;;;;;15.01;100.00;98963.25;4201903;28;20207;-47
2023/08/10 00:36:09;;;;;;;1.20;1.10;;;;;;;15.02;100.00;98956.69;4189043;28;20242;-48
2023/08/10 00:38:11;;;;;;;1.77;1.23;;;;;;;15.01;100.00;98966.03;4204589;28;20206;-47
2023/08/10 00:40:12;;;;;;;1.63;1.50;;;;;;;15.03;100.00;98967.41;4203109;28;20723;-48
2023/08/10 00:42:14;;;;;;;1.40;1.30;;;;;;;14.96;100.00;98966.81;4191709;28;20241;-49
2023/08/10 00:44:16;;;;;;;3.03;1.20;;;;;;;14.94;100.00;98963.50;4201723;28;20203;-48
2023/08/10 00:46:18;;;;;;;1.60;1.30;;;;;;;14.96;100.00;98966.00;4204645;28;20199;-48
2023/08/10 00:48:21;;;;;;;5.55;1.10;;;;;;;14.94;100.00;98963.50;4185837;28;20622;-49
2023/08/10 00:50:24;;;;;;;1.38;1.15;;;;;;;14.88;100.00;98967.34;4205607;28;20684;-48
2023/08/10 00:52:25;;;;;;;2.67;1.17;;;;;;;14.89;100.00;98969.00;4202388;28;20237;-47
2023/08/10 00:54:27;;;;;;;3.65;1.27;;;;;;;14.87;100.00;98968.44;4184431;28;20868;-48
2023/08/10 00:56:29;;;;;;;1.15;1.05;;;;;;;14.87;100.00;98960.16;4197716;28;20234;-49
2023/08/10 00:58:32;;;;;;;1.63;1.00;;;;;;;14.86;100.00;98961.28;4183781;28;20199;-48
2023/08/10 01:00:34;;;;;;;2.10;1.30;;;;;;;14.82;100.00;98962.88;4218531;28;20255;-48
2023/08/10 01:02:38;;;;;;;1.25;1.15;;;;;;;14.78;100.00;98964.53;4201929;28;20660;-47
2023/08/10 01:04:39;;;;;;;2.15;1.08;;;;;;;14.71;100.00;98972.19;4214389;28;20219;-48
2023/08/10 01:07:03;;;;;;;2.40;1.30;;;;;;;14.65;100.00;98965.00;4209007;28;20699;-48
2023/08/10 01:09:20;;;;;;;1.20;1.10;;;;;;;14.67;100.00;98967.47;4198160;28;20257;-48
2023/08/10 01:11:39;;;;;;;2.40;1.33;;;;;;;14.62;100.00;98973.78;4207264;28;20207;-48
2023/08/10 01:14:11;;;;;;;7.68;1.15;;;;;;;14.65;100.00;98970.50;4204893;28;20222;-48
2023/08/10 01:16:14;;;;;;;2.60;1.20;;;;;;;14.62;100.00;98971.03;4197947;28;20214;-47
2023/08/10 01:18:20;;;;;;;3.20;1.30;;;;;;;14.67;100.00;98979.31;4203001;28;20210;-48
2023/08/10 01:20:23;;;;;;;1.30;1.20;;;;;;;14.63;100.00;98972.69;4202375;28;20203;-48
2023/08/10 01:22:29;;;;;;;1.30;1.20;;;;;;;14.57;100.00;98979.25;4201927;28;20272;-48
2023/08/10 01:24:32;;;;;;;3.33;1.20;;;;;;;14.57;100.00;98976.47;4204987;28;20320;-48
2023/08/10 01:26:34;;;;;;;1.40;1.30;;;;;;;14.58;100.00;98971.81;4202979;28;20202;-47
2023/08/10 01:28:37;;;;;;;1.58;1.48;;;;;;;14.51;100.00;98972.03;4186880;28;20981;-48
2023/08/10 01:30:40;;;;;;;1.35;1.20;;;;;;;14.46;100.00;98972.00;4202260;28;20704;-47
2023/08/10 01:32:42;;;;;;;3.40;1.48;;;;;;;14.43;100.00;98971.72;4196763;28;20659;-48
2023/08/10 01:34:44;;;;;;;2.67;1.10;;;;;;;14.46;100.00;98973.91;4198117;28;20688;-49
2023/08/10 01:36:46;;;;;;;1.98;1.00;;;;;;;14.43;100.00;98972.53;4200941;28;20230;-49
2023/08/10 01:38:48;;;;;;;3.42;1.48;;;;;;;14.43;100.00;98972.53;4206824;28;20290;-47
2023/08/10 01:40:51;;;;;;;2.83;1.13;;;;;;;14.43;100.00;98971.72;4201809;28;20199;-48
2023/08/10 01:42:53;;;;;;;1.88;1.00;;;;;;;14.48;100.00;98964.31;4201356;28;20251;-48
2023/08/10 01:44:54;;;;;;;2.67;1.20;;;;;;;14.48;100.00;98968.97;4197441;28;20211;-48
2023/08/10 01:47:00;;;;;;;4.25;1.30;;;;;;;14.38;100.00;98969.72;4203485;28;20207;-48
2023/08/10 01:49:03;;;;;;;1.88;1.27;;;;;;;14.36;100.00;98969.16;4198995;28;20661;-48
2023/08/10 01:51:07;;;;;;;2.15;1.00;;;;;;;14.31;100.00;98971.06;4189075;28;20212;-48
2023/08/10 01:53:12;;;;;;;4.30;1.13;;;;;;;14.31;100.00;98973.81;4203454;28;20344;-48
2023/08/10 01:55:14;;;;;;;2.25;1.55;;;;;;;14.19;100.00;98975.91;4201330;28;21076;-48
2023/08/10 01:57:16;;;;;;;1.50;1.40;;;;;;;14.14;100.00;98968.41;4198208;28;20230;-48
2023/08/10 01:59:21;;;;;;;1.17;1.08;;;;;;;14.14;100.00;98973.91;4204187;28;20206;-47
2023/08/10 02:01:23;;;;;;;1.60;1.42;;;;;;;14.16;100.00;98977.22;4225428;28;20210;-49
2023/08/10 02:03:24;;;;;;;1.30;1.20;;;;;;;14.12;100.00;98976.09;4201858;28;20254;-47
2023/08/10 02:05:26;;;;;;;1.42;1.33;;;;;;;14.11;100.00;98985.44;4200318;28;20269;-47
2023/08/10 02:07:28;;;;;;;1.92;1.17;;;;;;;14.08;100.00;98980.44;4202473;28;20873;-48
2023/08/10 02:09:29;;;;;;;2.15;1.48;;;;;;;14.09;100.00;98982.13;4205828;28;20542;-49
2023/08/10 02:11:32;;;;;;;2.05;1.85;;;;;;;14.14;100.00;98984.06;4202004;28;20207;-49
2023/08/10 02:13:33;;;;;;;3.13;1.50;;;;;;;14.06;100.00;98988.16;4201506;28;20572;-48
2023/08/10 02:15:35;;;;;;;3.75;1.35;;;;;;;14.04;100.00;98984.00;4202815;28;20673;-48
2023/08/10 02:17:38;;;;;;;2.17;1.10;;;;;;;14.01;100.00;98990.84;4221926;28;20230;-47
2023/08/10 02:19:40;;;;;;;3.95;1.50;;;;;;;14.06;100.00;98992.81;4205095;28;20317;-49
2023/08/10 02:21:42;;;;;;;3.17;1.20;;;;;;;13.99;100.00;98986.69;4203772;28;20203;-48
2023/08/10 02:23:43;;;;;;;1.98;1.30;;;;;;;13.92;100.00;98988.81;4204122;28;20238;-48
2023/08/10 02:25:45;;;;;;;1.30;1.20;;;;;;;13.98;100.00;98996.84;4210742;28;20201;-48
2023/08/10 02:27:50;;;;;;;2.17;1.48;;;;;;;13.97;100.00;98994.38;4219230;27;20214;-48
2023/08/10 02:29:52;;;;;;;7.05;1.50;;;;;;;13.92;100.00;98992.41;4225784;28;20659;-48
2023/08/10 02:31:54;;;;;;;1.98;1.20;;;;;;;13.89;100.00;98990.16;4210404;28;20206;-48
2023/08/10 02:33:55;;;;;;;3.08;1.35;;;;;;;13.98;100.00;98990.53;4205462;28;20215;-48
2023/08/10 02:35:57;;;;;;;1.35;1.25;;;;;;;13.95;100.00;98991.88;4204505;28;20289;-48
2023/08/10 02:37:59;;;;;;;1.58;1.48;;;;;;;13.91;100.00;98987.97;4219313;28;20214;-47
2023/08/10 02:40:06;;;;;;;8.82;1.58;;;;;;;13.90;100.00;98982.75;4204142;28;20207;-48
2023/08/10 02:42:08;;;;;;;1.92;1.20;;;;;;;13.90;100.00;98988.25;4200656;28;20226;-49
2023/08/10 02:44:10;;;;;;;1.88;1.30;;;;;;;13.74;100.00;98990.00;4199648;28;20203;-50
2023/08/10 02:46:13;;;;;;;3.53;1.73;;;;;;;13.73;100.00;98977.34;4207165;28;20211;-48
2023/08/10 02:48:15;;;;;;;2.58;1.58;;;;;;;13.75;100.00;98985.31;4205538;28;20234;-48
2023/08/10 02:50:16;;;;;;;3.85;2.42;;;;;;;13.69;100.00;98986.41;4199406;28;20203;-48
2023/08/10 02:52:18;;;;;;;1.67;1.15;;;;;;;13.65;100.00;98986.06;4188791;28;20227;-50
2023/08/10 02:54:20;;;;;;;8.00;1.15;;;;;;;13.63;100.00;98982.72;4201428;28;20221;-48
2023/08/10 02:56:22;;;;;;;1.20;1.10;;;;;;;13.60;100.00;98994.25;4202377;28;20278;-48
2023/08/10 02:58:23;;;;;;;2.70;1.10;;;;;;;13.59;100.00;98987.09;4202304;28;20226;-49
2023/08/10 03:00:25;;;;;;;1.52;1.33;;;;;;;13.60;100.00;98983.25;4210358;28;20789;-49
2023/08/10 03:02:28;;;;;;;1.58;1.48;;;;;;;13.57;100.00;98986.50;4214548;28;20231;-48
2023/08/10 03:04:30;;;;;;;2.22;2.03;;;;;;;13.52;100.00;98983.72;4205800;28;20202;-48
2023/08/10 03:06:32;;;;;;;1.23;1.13;;;;;;;13.52;100.00;98982.88;4201470;28;20227;-48
2023/08/10 03:08:35;;;;;;;2.10;1.40;;;;;;;13.53;100.00;98990.88;4201579;28;20714;-48
2023/08/10 03:10:37;;;;;;;1.35;1.27;;;;;;;13.50;100.00;98990.56;4205816;28;20206;-50
2023/08/10 03:12:38;;;;;;;3.53;1.45;;;;;;;13.54;100.00;98988.94;4205755;28;20230;-48
2023/08/10 03:14:40;;;;;;;1.30;1.20;;;;;;;13.56;100.00;98990.34;4210237;28;20676;-48
2023/08/10 03:16:42;;;;;;;1.67;1.58;;;;;;;13.54;100.00;98992.53;4204006;28;20664;-48
2023/08/10 03:18:44;;;;;;;2.60;1.70;;;;;;;13.50;100.00;98996.88;4199792;28;20277;-49
2023/08/10 03:20:46;;;;;;;1.90;1.48;;;;;;;13.45;100.00;98991.34;4205187;28;20236;-48
2023/08/10 03:22:47;;;;;;;5.65;1.70;;;;;;;13.48;100.00;98990.81;4204064;28;20247;-49
2023/08/10 03:24:49;;;;;;;2.28;1.73;;;;;;;13.38;100.00;98987.94;4203453;28;20259;-48
2023/08/10 03:26:51;;;;;;;4.65;1.50;;;;;;;13.36;100.00;98992.88;4202544;28;20607;-49
2023/08/10 03:28:53;;;;;;;2.47;1.33;;;;;;;13.40;100.00;98991.28;4201990;28;20263;-49
2023/08/10 03:30:54;;;;;;;1.30;1.10;;;;;;;13.30;100.00;98982.88;4209710;28;20649;-48
2023/08/10 03:32:56;;;;;;;2.28;1.50;;;;;;;13.35;100.00;98980.22;4208126;28;20230;-49
2023/08/10 03:34:58;;;;;;;2.70;1.33;;;;;;;13.27;100.00;98986.16;4223286;28;20212;-49
2023/08/10 03:37:00;;;;;;;2.20;1.65;;;;;;;13.22;100.00;98977.84;4206159;28;20761;-48
2023/08/10 03:39:01;;;;;;;4.70;1.48;;;;;;;13.20;100.00;98977.28;4207825;28;20214;-48
2023/08/10 03:41:03;;;;;;;2.70;1.50;;;;;;;13.24;100.00;98981.16;4221849;28;20220;-49
2023/08/10 03:43:05;;;;;;;1.67;1.40;;;;;;;13.25;100.00;98985.56;4203261;28;20241;-50
2023/08/10 03:45:07;;;;;;;1.75;1.50;;;;;;;13.32;100.00;98980.75;4201260;28;20198;-49
2023/08/10 03:47:09;;;;;;;1.75;1.50;;;;;;;13.25;100.00;98985.56;4202719;28;20204;-49
2023/08/10 03:49:10;;;;;;;2.22;1.38;;;;;;;13.23;100.00;98986.94;4204201;28;20256;-48
2023/08/10 03:51:12;;;;;;;1.63;1.40;;;;;;;13.19;100.00;98980.28;4200062;28;20566;-49
2023/08/10 03:53:14;;;;;;;1.30;1.20;;;;;;;13.16;100.00;98981.63;4202555;28;20279;-49
2023/08/10 03:55:16;;;;;;;2.78;1.33;;;;;;;13.14;100.00;98981.03;4209173;28;20282;-49
2023/08/10 03:57:17;;;;;;;1.55;1.30;;;;;;;13.12;100.00;98985.97;4226063;28;20225;-49
2023/08/10 03:59:19;;;;;;;1.25;0.98;;;;;;;13.09;100.00;98986.47;4203487;28;20255;-48
2023/08/10 04:01:22;;;;;;;1.48;1.13;;;;;;;12.98;100.00;98995.66;4206812;28;20210;-48
2023/08/10 04:03:24;;;;;;;1.30;1.20;;;;;;;12.94;100.00;98991.72;4199712;28;20304;-49
2023/08/10 04:05:27;;;;;;;1.58;1.35;;;;;;;12.92;100.00;99006.81;4201433;28;20209;-50
2023/08/10 04:07:30;;;;;;;4.15;1.30;;;;;;;12.97;100.00;98999.47;4201638;28;20667;-49
2023/08/10 04:09:32;;;;;;;1.90;1.65;;;;;;;12.97;100.00;99002.22;4204653;28;20259;-48
2023/08/10 04:11:34;;;;;;;2.10;2.00;;;;;;;12.96;100.00;99008.81;4203264;28;20211;-48
2023/08/10 04:13:36;;;;;;;1.25;1.08;;;;;;;12.99;100.00;99008.31;4202982;28;20219;-49
2023/08/10 04:15:37;;;;;;;2.40;1.25;;;;;;;12.95;100.00;99011.81;4201520;28;20217;-48
2023/08/10 04:17:39;;;;;;;1.58;1.48;;;;;;;12.94;100.00;99010.13;4201356;28;20788;-48
2023/08/10 04:19:41;;;;;;;1.52;1.42;;;;;;;12.87;100.00;99015.81;4203505;28;20314;-48
2023/08/10 04:21:44;;;;;;;4.07;1.45;;;;;;;12.91;100.00;99011.44;4199835;28;20981;-49
2023/08/10 04:23:46;;;;;;;2.15;1.23;;;;;;;12.92;100.00;99010.41;4200409;28;20233;-48
2023/08/10 04:25:48;;;;;;;1.17;1.13;;;;;;;12.94;100.00;99019.22;4202760;28;20222;-48
2023/08/10 04:27:50;;;;;;;1.52;1.30;;;;;;;12.90;100.00;99031.75;4206811;28;20207;-49
2023/08/10 04:29:52;;;;;;;4.28;1.30;;;;;;;12.90;100.00;99026.28;4200837;28;20671;-48
2023/08/10 04:31:53;;;;;;;1.20;1.10;;;;;;;12.83;100.00;99033.84;4188206;28;20207;-49
2023/08/10 04:33:55;;;;;;;2.45;1.10;;;;;;;12.79;100.00;99027.22;4202400;28;20813;-48
2023/08/10 04:35:57;;;;;;;3.30;1.40;;;;;;;12.76;100.00;99035.94;4189898;28;20272;-49
2023/08/10 04:37:59;;;;;;;1.45;1.20;;;;;;;12.75;100.00;99030.69;4208189;28;20743;-49
2023/08/10 04:40:03;;;;;;;2.35;1.58;;;;;;;12.77;100.00;99034.88;4205861;28;20742;-48
2023/08/10 04:42:06;;;;;;;2.72;1.45;;;;;;;12.79;100.00;99029.97;4202342;28;20673;-48
2023/08/10 04:44:08;;;;;;;1.30;1.20;;;;;;;12.80;100.00;99037.13;4205801;28;20218;-49
2023/08/10 04:46:10;;;;;;;7.40;1.40;;;;;;;12.85;100.00;99039.91;4183418;28;20204;-49
2023/08/10 04:48:13;;;;;;;2.25;1.27;;;;;;;12.85;100.00;99045.41;4204499;28;20668;-48
2023/08/10 04:50:14;;;;;;;1.83;1.30;;;;;;;12.82;100.00;99043.19;4203862;28;20932;-48
2023/08/10 04:52:16;;;;;;;4.55;1.75;;;;;;;12.84;100.00;99043.75;4223698;28;20218;-48
2023/08/10 04:54:18;;;;;;;2.35;1.38;;;;;;;12.86;100.00;99040.78;4198889;28;20214;-48
2023/08/10 04:56:20;;;;;;;2.50;1.20;;;;;;;12.86;100.00;99044.38;4183393;28;20204;-49
2023/08/10 04:58:22;;;;;;;3.45;1.40;;;;;;;12.86;100.00;99040.78;4202815;28;20271;-49
2023/08/10 05:00:24;;;;;;;1.70;1.60;;;;;;;12.88;100.00;99041.34;4200897;28;20616;-48
2023/08/10 05:02:25;;;;;;;3.63;1.20;;;;;;;12.91;100.00;99044.41;4202186;28;20862;-48
2023/08/10 05:04:27;;;;;;;2.13;1.25;;;;;;;12.89;100.00;99040.28;4202090;28;20202;-49
2023/08/10 05:06:29;;;;;;;2.58;1.65;;;;;;;12.91;100.00;99049.09;4200581;28;20214;-48
2023/08/10 05:08:31;;;;;;;5.43;1.60;;;;;;;12.85;100.00;99044.59;4201442;28;20211;-49
2023/08/10 05:10:33;;;;;;;3.25;1.40;;;;;;;12.89;100.00;99057.56;4202170;28;20761;-48
2023/08/10 05:12:36;;;;;;;3.25;2.08;;;;;;;12.82;100.00;99051.44;4207643;28;21087;-48
2023/08/10 05:14:38;;;;;;;3.92;1.70;;;;;;;12.83;100.00;99055.84;4203436;28;20729;-47
2023/08/10 05:16:40;;;;;;;3.10;1.80;;;;;;;12.95;100.00;99051.13;4206384;28;20253;-48
2023/08/10 05:18:42;;;;;;;3.55;1.67;;;;;;;12.98;100.00;99050.59;4207192;28;20230;-48
2023/08/10 05:20:43;;;;;;;4.60;1.77;;;;;;;12.92;100.00;99050.75;4201240;28;20223;-48
2023/08/10 05:22:45;;;;;;;7.47;1.70;;;;;;;12.89;100.00;99046.59;4207517;28;20629;-48
2023/08/10 05:24:47;;;;;;;3.78;2.38;;;;;;;13.03;100.00;99053.44;4192038;28;20211;-48
2023/08/10 05:26:49;;;;;;;3.33;1.75;;;;;;;12.98;100.00;99056.09;4205868;28;20211;-49
2023/08/10 05:28:50;;;;;;;4.15;2.22;;;;;;;13.02;100.00;99067.41;4204039;28;20260;-48
2023/08/10 05:30:52;;;;;;;2.00;1.65;;;;;;;13.10;100.00;99065.06;4207294;28;20207;-48
2023/08/10 05:32:55;;;;;;;1.85;1.58;;;;;;;13.22;100.00;99065.78;4200630;28;20227;-48
2023/08/10 05:34:56;;;;;;;2.20;1.75;;;;;;;13.28;100.00;99056.53;4203986;28;20207;-47
2023/08/10 05:36:58;;;;;;;2.15;1.95;;;;;;;13.41;100.00;99056.16;4218368;28;20214;-47
2023/08/10 05:39:00;;;;;;;2.88;1.90;;;;;;;13.55;100.00;99056.59;4202724;28;20630;-48
2023/08/10 05:41:02;;;;;;;6.47;1.92;;;;;;;13.56;100.00;99059.09;4196350;28;20211;-48
2023/08/10 05:43:04;;;;;;;1.88;1.77;;;;;;;13.53;100.00;99062.38;4186539;28;20224;-48
2023/08/10 05:45:06;;;;;;;2.33;2.13;;;;;;;13.52;100.00;99063.47;4187268;28;20222;-49
2023/08/10 05:47:08;;;;;;;1.63;1.50;;;;;;;13.51;100.00;99067.28;4204209;28;20214;-49
2023/08/10 05:49:10;;;;;;;2.38;1.70;;;;;;;13.53;100.00;99059.63;4204793;28;20215;-48
2023/08/10 05:51:12;;;;;;;2.35;2.15;;;;;;;13.67;100.00;99057.31;4207810;28;20207;-49
2023/08/10 05:53:14;;;;;;;1.98;1.75;;;;;;;13.98;100.00;99057.41;4186223;28;20582;-49
2023/08/10 05:55:18;;;;;;;5.00;1.90;;;;;;;14.16;100.00;99059.78;4209076;28;20210;-48
2023/08/10 05:57:20;;;;;;;5.70;2.10;;;;;;;14.34;100.00;99067.72;4207131;28;20252;-47
2023/08/10 05:59:22;;;;;;;2.00;1.77;;;;;;;14.51;100.00;99062.91;4207450;28;20774;-49
2023/08/10 06:01:24;;;;;;;2.75;2.20;;;;;;;14.76;100.00;99060.38;4205562;28;20832;-47
2023/08/10 06:03:25;;;;;;;2.85;2.10;;;;;;;15.05;100.00;99060.88;4203264;28;20326;-48
2023/08/10 06:05:31;;;;;;;4.80;2.35;;;;;;;15.21;100.00;99073.66;4207030;28;20210;-48
2023/08/10 06:07:33;;;;;;;3.65;2.20;;;;;;;15.26;100.00;99077.28;4202748;28;20207;-49
2023/08/10 06:09:35;;;;;;;3.83;2.17;;;;;;;15.20;100.00;99077.50;4204278;28;20241;-48
2023/08/10 06:11:37;;;;;;;2.30;1.95;;;;;;;15.42;100.00;99081.81;4187328;28;20227;-48
2023/08/10 06:13:49;;;;;;;2.33;1.80;;;;;;;15.64;100.00;99079.72;4204037;28;20676;-48
2023/08/10 06:15:50;;;;;;;1.77;1.67;;;;;;;15.82;100.00;99087.53;4204269;28;20210;-47
2023/08/10 06:17:52;;;;;;;1.80;1.50;;;;;;;15.86;100.00;99088.66;4204672;28;20255;-47
2023/08/10 06:19:57;;;;;;;2.97;1.50;;;;;;;16.07;100.00;99084.03;4202064;28;20668;-48
2023/08/10 06:22:00;;;;;;;2.85;1.60;;;;;;;16.09;100.00;99082.66;4203413;28;22033;-49
2023/08/10 06:24:04;;;;;;;5.18;1.77;;;;;;;16.04;100.00;99088.16;4203205;28;20210;-48
2023/08/10 06:26:06;;;;;;;2.00;1.73;;;;;;;16.27;100.00;99076.66;4209989;28;20207;-48
2023/08/10 06:28:08;;;;;;;6.38;1.48;;;;;;;16.33;100.00;99083.00;4201388;28;20207;-48
2023/08/10 06:30:10;;;;;;;2.08;1.50;;;;;;;16.56;100.00;99080.59;4209244;28;20210;-47
2023/08/10 06:32:12;;;;;;;3.40;1.55;;;;;;;16.58;100.00;99081.16;4219892;28;20310;-49
2023/08/10 06:34:15;;;;;;;1.40;1.30;;;;;;;16.79;100.00;99088.34;4201179;28;20222;-48
2023/08/10 06:36:17;;;;;;;1.80;1.52;;;;;;;16.93;99.73;99089.47;4200284;28;20229;-48
2023/08/10 06:38:18;;;;;;;1.65;1.35;;;;;;;17.10;99.12;99095.50;4217675;28;20237;-49
2023/08/10 06:40:21;;;;;;;3.75;1.70;;;;;;;17.22;98.27;99094.13;4204741;28;20198;-47
2023/08/10 06:42:23;;;;;;;2.20;1.77;;;;;;;17.05;98.98;99092.78;4203529;28;20235;-48
2023/08/10 06:44:25;;;;;;;1.50;1.40;;;;;;;17.44;96.83;99096.63;4207666;28;20214;-48
2023/08/10 06:46:27;;;;;;;2.08;1.95;;;;;;;17.67;95.52;99094.06;4187504;28;20216;-48
2023/08/10 06:48:28;;;;;;;1.45;1.30;;;;;;;17.96;93.94;99099.75;4206642;28;20210;-48
2023/08/10 06:50:30;;;;;;;2.67;1.23;;;;;;;18.13;93.67;99091.94;4208098;28;20293;-48
2023/08/10 06:52:33;;;;;;;6.55;1.73;;;;;;;17.88;91.23;99098.44;4203112;28;20233;-47
2023/08/10 06:54:35;;;;;;;1.90;1.38;;;;;;;18.16;93.53;99096.91;4200310;28;20203;-47
2023/08/10 06:56:37;;;;;;;4.03;1.20;;;;;;;18.38;90.87;99100.16;4201846;28;20222;-48
2023/08/10 06:58:39;;;;;;;1.50;1.40;;;;;;;18.62;89.91;99098.31;4202956;28;20642;-48
2023/08/10 07:00:44;;;;;;;1.98;1.50;;;;;;;19.07;87.55;99089.66;4201971;28;20210;-48
2023/08/10 07:02:48;;;;;;;4.00;1.20;;;;;;;19.03;87.32;99100.50;4207730;28;20300;-47
2023/08/10 07:04:51;;;;;;;1.95;1.50;;;;;;;18.02;86.49;99093.94;4217517;28;20274;-47
2023/08/10 07:06:54;;;;;;;2.58;2.38;;;;;;;17.80;88.51;99089.88;4203518;28;20241;-47
2023/08/10 07:08:55;;;;;;;3.53;1.83;;;;;;;18.01;93.12;99083.13;4203451;28;20202;-47
2023/08/10 07:11:01;;;;;;;2.33;1.20;;;;;;;18.14;87.62;99090.81;4221776;27;20228;-47
2023/08/10 07:13:03;;;;;;;3.97;1.33;;;;;;;18.19;88.55;99088.03;4218326;28;21236;-47
2023/08/10 07:15:07;;;;;;;3.45;1.88;;;;;;;19.13;86.51;99099.59;4217870;28;20309;-47
2023/08/10 07:17:09;;;;;;;1.10;1.00;;;;;;;19.30;86.10;99100.00;4204281;28;20217;-47
2023/08/10 07:19:11;;;;;;;5.93;1.58;;;;;;;19.55;86.48;99094.19;4223618;27;20781;-47
2023/08/10 07:21:13;;;;;;;2.55;1.15;;;;;;;19.64;82.98;99098.00;4205748;28;20207;-47
2023/08/10 07:23:17;;;;;;;1.48;1.30;;;;;;;20.04;83.18;99100.31;4204227;28;20238;-47
2023/08/10 07:25:20;;;;;;;6.47;1.45;;;;;;;19.81;84.34;99101.13;4203698;28;20630;-49
2023/08/10 07:27:22;;;;;;;2.00;1.30;;;;;;;19.90;79.99;99099.38;4202855;28;20277;-47
2023/08/10 07:29:24;;;;;;;2.35;1.30;;;;;;;19.64;78.89;99095.22;4199907;28;20199;-48
2023/08/10 07:31:31;;;;;;;1.67;1.35;;;;;;;19.69;81.57;99092.38;4222775;28;20210;-48
2023/08/10 07:33:33;;;;;;;2.30;1.30;;;;;;;19.80;79.39;99093.94;4194433;28;20226;-48
2023/08/10 07:35:35;;;;;;;2.10;1.27;;;;;;;20.17;81.31;99091.28;4205181;28;20207;-49
2023/08/10 07:37:39;;;;;;;3.05;1.30;;;;;;;20.70;77.79;99092.75;4223143;28;20198;-48
2023/08/10 07:39:40;;;;;;;4.40;1.42;;;;;;;20.73;76.51;99094.91;4203320;28;20741;-47
2023/08/10 07:41:45;;;;;;;1.55;1.13;;;;;;;21.07;76.01;99093.56;4205148;28;20252;-48
2023/08/10 07:43:47;;;;;;;1.98;1.33;;;;;;;21.45;75.40;99088.72;4214326;28;20876;-48
2023/08/10 07:45:49;;;;;;;2.72;1.33;;;;;;;21.76;73.77;99084.22;4201412;28;20225;-48
2023/08/10 07:47:51;;;;;;;2.38;1.30;;;;;;;21.30;73.28;99086.22;4224323;27;20210;-48
2023/08/10 07:49:52;;;;;;;1.30;1.20;;;;;;;22.01;73.36;99092.91;4200209;28;20670;-47
2023/08/10 07:51:54;;;;;;;1.30;1.20;;;;;;;22.64;70.42;99085.41;4204490;28;20750;-47
2023/08/10 07:53:56;;;;;;;1.70;1.48;;;;;;;22.59;70.52;99084.72;4221464;28;20216;-47
2023/08/10 07:55:57;;;;;;;4.65;1.77;;;;;;;22.41;71.00;99085.63;4220967;28;20931;-47
2023/08/10 07:57:59;;;;;;;2.72;1.40;;;;;;;21.83;73.12;99087.47;4197682;28;20213;-49
2023/08/10 08:00:05;;;;;;;1.35;1.25;;;;;;;22.34;73.12;99080.50;4199904;28;20228;-48
2023/08/10 08:02:08;;;;;;;1.00;0.90;;;;;;;22.65;71.89;99089.03;4207979;28;20213;-48
2023/08/10 08:04:10;;;;;;;1.73;1.50;;;;;;;23.05;69.27;99085.28;4188831;28;20206;-49
2023/08/10 08:06:12;;;;;;;0.82;0.82;;;;;;;22.08;70.02;99084.13;4215105;28;20309;-48
2023/08/10 08:08:14;;;;;;;1.65;1.00;;;;;;;21.39;72.74;99067.66;4205056;28;20213;-48
2023/08/10 08:10:16;;;;;;;2.75;1.52;;;;;;;21.15;72.81;99069.75;4204852;28;20216;-49
2023/08/10 08:12:18;;;;;;;1.60;1.00;;;;;;;20.97;70.74;99065.06;4199917;28;20236;-48
2023/08/10 08:14:19;;;;;;;3.30;1.08;;;;;;;20.85;73.22;99061.91;4205734;28;20334;-48
2023/08/10 08:16:21;;;;;;;1.20;1.02;;;;;;;20.60;77.75;99065.06;4198880;28;20202;-46
2023/08/10 08:18:46;;;;;;;2.08;1.25;;;;;;;21.40;70.00;99074.88;4186852;28;20667;-46
2023/08/10 08:20:47;;;;;;;1.42;1.33;;;;;;;22.51;70.46;99074.28;4198833;28;20257;-46
2023/08/10 08:22:49;;;;;;;4.35;1.33;;;;;;;22.95;67.83;99068.75;4206126;28;20855;-46
2023/08/10 08:24:52;;;;;;;1.35;1.00;;;;;;;22.65;69.51;99072.28;4204348;28;20240;-46
2023/08/10 08:26:54;;;;;;;2.00;1.23;;;;;;;23.05;67.32;99068.50;4207712;28;20274;-46
2023/08/10 08:28:57;;;;;;;0.98;0.93;;;;;;;22.64;63.69;99056.69;4203643;28;20206;-47
2023/08/10 08:30:59;;;;;;;2.10;1.40;;;;;;;22.15;65.28;99065.00;4201309;28;20215;-46
2023/08/10 08:33:01;;;;;;;2.72;1.40;;;;;;;21.94;65.85;99063.78;4201284;28;20234;-48
2023/08/10 08:35:03;;;;;;;1.05;0.85;;;;;;;22.68;68.36;99066.06;4201059;28;20412;-47
2023/08/10 08:37:05;;;;;;;2.10;1.10;;;;;;;23.27;67.13;99060.13;4200406;28;20255;-47
2023/08/10 08:39:09;;;;;;;1.88;1.10;;;;;;;23.61;65.89;99060.34;4218421;28;20233;-47
2023/08/10 08:41:11;;;;;;;5.85;1.20;;;;;;;22.75;65.60;99058.06;4202470;28;20198;-47
2023/08/10 08:43:13;;;;;;;0.90;0.85;;;;;;;23.82;65.01;99059.44;4198222;28;20240;-47
2023/08/10 08:45:16;;;;;;;1.40;1.15;;;;;;;24.08;64.11;99064.03;4205929;28;20271;-47
2023/08/10 08:47:17;;;;;;;0.88;0.88;;;;;;;24.56;61.94;99062.03;4220573;27;20224;-47
2023/08/10 08:49:22;;;;;;;2.53;1.10;;;;;;;24.73;61.54;99067.63;4196553;28;20206;-47
2023/08/10 08:51:24;;;;;;;1.73;1.00;;;;;;;24.81;60.74;99066.78;4197403;28;20206;-47
2023/08/10 08:53:25;;;;;;;1.42;0.95;;;;;;;23.06;61.13;99062.63;4197355;28;20214;-47
2023/08/10 08:55:28;;;;;;;1.80;1.20;;;;;;;22.63;64.19;99066.22;4198403;28;21261;-47
2023/08/10 08:57:29;;;;;;;2.33;0.82;;;;;;;23.05;64.16;99057.34;4182148;28;20215;-47
2023/08/10 08:59:31;;;;;;;1.58;1.02;;;;;;;23.51;63.37;99060.63;4202444;28;20226;-47
2023/08/10 09:01:33;;;;;;;1.48;1.20;;;;;;;23.31;61.37;99050.00;4198236;28;20209;-47
2023/08/10 09:03:35;;;;;;;1.92;1.33;;;;;;;23.04;64.05;99044.53;4197255;28;20226;-47
2023/08/10 09:05:36;;;;;;;3.13;1.13;;;;;;;24.17;62.17;99048.09;4200865;28;20234;-47
2023/08/10 09:07:38;;;;;;;1.95;1.00;;;;;;;24.12;60.62;99044.63;4202872;28;20205;-47
2023/08/10 09:09:41;;;;;;;1.25;1.10;;;;;;;23.84;59.70;99049.59;4204193;28;20684;-48
2023/08/10 09:11:43;;;;;;;4.45;1.67;;;;;;;23.55;59.37;99045.69;4198808;28;20683;-47
2023/08/10 09:14:04;;;;;;;5.18;1.50;;;;;;;23.65;58.37;99041.78;4201938;28;20229;-48
2023/08/10 09:16:08;;;;;;;2.75;1.10;;;;;;;23.18;61.61;99031.34;4199914;28;20207;-47
2023/08/10 09:18:11;;;;;;;2.20;1.10;;;;;;;23.98;63.11;99034.72;4201351;28;20297;-47
2023/08/10 09:20:25;;;;;;;2.00;1.42;;;;;;;23.43;59.57;99028.69;4198749;28;20229;-47
2023/08/10 09:22:31;;;;;;;2.05;1.25;;;;;;;23.42;61.01;99023.41;4223936;28;22346;-47
2023/08/10 09:24:36;;;;;;;4.85;2.35;;;;;;;23.32;61.34;99024.53;4205713;28;20232;-47
2023/08/10 09:26:39;;;;;;;3.42;1.42;;;;;;;24.10;61.94;99016.97;4204312;28;20648;-47
2023/08/10 09:28:41;;;;;;;1.30;1.20;;;;;;;24.45;59.90;99015.06;4201645;28;20267;-47
2023/08/10 09:30:43;;;;;;;2.53;1.15;;;;;;;24.14;57.78;99009.56;4204641;28;20210;-47
2023/08/10 09:32:45;;;;;;;1.30;1.20;;;;;;;24.35;58.38;99020.97;4203948;28;20265;-48